Time;durP1;ratioP1;P1;durP2;ratioP2;P2;SDS_P1;SDS_P2;PMS_P1;PMS_P2;Temp;Humidity;BMP_temperature;BMP_pressure;BME280_temperature;BME280_humidity;BME280_pressure;Samples;Min_cycle;Max_cycle;Signal;HPM_P1;HPM_P2
2023/04/29 00:01:51;;;;;;;6.97;6.47;;;;;;;;;;6124500;23;20031;-71
2023/04/29 00:04:17;;;;;;;6.43;6.03;;;;;;;;;;6124241;23;20120;-71
2023/04/29 00:06:43;;;;;;;6.20;5.80;;;;;;;;;;6098671;23;20020;-70
2023/04/29 00:09:09;;;;;;;6.22;5.82;;;;;;;;;;6124746;23;20104;-70
2023/04/29 00:11:35;;;;;;;6.43;6.03;;;;;;;;;;6126136;23;20042;-72
2023/04/29 00:14:02;;;;;;;6.00;5.53;;;;;;;;;;6125614;23;20034;-69
2023/04/29 00:16:28;;;;;;;8.82;8.32;;;;;;;;;;6124711;23;20352;-69
2023/04/29 00:18:54;;;;;;;6.80;6.32;;;;;;;;;;6098119;23;20096;-70
2023/04/29 00:21:20;;;;;;;7.13;6.72;;;;;;;;;;6124429;23;20021;-71
2023/04/29 00:23:46;;;;;;;10.13;9.40;;;;;;;;;;6124392;23;20010;-71
2023/04/29 00:26:13;;;;;;;9.20;8.52;;;;;;;;;;6124061;23;20029;-69
2023/04/29 00:28:43;;;;;;;7.22;6.72;;;;;;;;;;6098216;23;20010;-69
2023/04/29 00:31:09;;;;;;;8.77;8.18;;;;;;;;;;6097728;23;20039;-70
2023/04/29 00:33:35;;;;;;;7.85;6.90;;;;;;;;;;6098148;23;20017;-70
2023/04/29 00:36:02;;;;;;;8.88;8.27;;;;;;;;;;6097940;23;20045;-70
2023/04/29 00:38:28;;;;;;;12.05;11.15;;;;;;;;;;6124041;23;20006;-68
2023/04/29 00:40:54;;;;;;;11.35;10.50;;;;;;;;;;6123752;23;20021;-70
2023/04/29 00:43:20;;;;;;;12.88;11.90;;;;;;;;;;6124048;23;20006;-69
2023/04/29 00:45:46;;;;;;;22.95;20.77;;;;;;;;;;6124128;23;20053;-69
2023/04/29 00:48:14;;;;;;;15.40;14.07;;;;;;;;;;6124312;23;20036;-69
2023/04/29 00:50:41;;;;;;;11.05;9.77;;;;;;;;;;6124409;23;20053;-69
2023/04/29 00:53:07;;;;;;;4.78;4.45;;;;;;;;;;6097591;23;20010;-69
2023/04/29 00:55:33;;;;;;;4.90;4.60;;;;;;;;;;6098059;23;20032;-69
2023/04/29 00:58:01;;;;;;;3.08;2.97;;;;;;;;;;6123604;23;20014;-70
2023/04/29 01:00:27;;;;;;;3.80;3.60;;;;;;;;;;6101474;23;20018;-69
2023/04/29 01:02:56;;;;;;;4.18;3.97;;;;;;;;;;6101476;23;20010;-70
2023/04/29 01:05:23;;;;;;;7.70;7.10;;;;;;;;;;6099779;23;20431;-70
2023/04/29 01:08:07;;;;;;;11.63;10.85;;;;;;;;;;6097867;23;20010;-69
2023/04/29 01:10:39;;;;;;;7.78;7.10;;;;;;;;;;6097880;23;20431;-70
2023/04/29 01:13:31;;;;;;;5.05;4.65;;;;;;;;;;6097715;23;20017;-69
2023/04/29 01:16:04;;;;;;;4.00;3.80;;;;;;;;;;6047010;23;20018;-69
2023/04/29 01:18:38;;;;;;;3.92;3.63;;;;;;;;;;6123657;23;20013;-68
2023/04/29 01:21:04;;;;;;;2.40;2.30;;;;;;;;;;6098146;23;20024;-69
2023/04/29 01:23:30;;;;;;;2.58;2.40;;;;;;;;;;6098077;23;20089;-68
2023/04/29 01:25:57;;;;;;;2.70;2.50;;;;;;;;;;6123400;23;20018;-69
2023/04/29 01:29:08;;;;;;;2.70;2.50;;;;;;;;;;6091992;23;20021;-67
2023/04/29 01:31:35;;;;;;;2.63;2.42;;;;;;;;;;6073767;23;20026;-69
2023/04/29 01:34:13;;;;;;;2.88;2.78;;;;;;;;;;6073400;23;20018;-68
2023/04/29 01:36:49;;;;;;;2.65;2.55;;;;;;;;;;6074164;23;20037;-68
2023/04/29 01:39:33;;;;;;;3.67;2.58;;;;;;;;;;6074354;23;20006;-69
2023/04/29 01:42:26;;;;;;;2.85;2.75;;;;;;;;;;6097823;23;20324;-69
2023/04/29 01:44:54;;;;;;;2.22;2.13;;;;;;;;;;6073729;23;20010;-70
2023/04/29 01:47:22;;;;;;;2.17;2.05;;;;;;;;;;6073928;23;20021;-71
2023/04/29 01:49:51;;;;;;;2.40;2.30;;;;;;;;;;6097241;23;20085;-70
2023/04/29 01:52:17;;;;;;;2.28;2.03;;;;;;;;;;6097195;23;20014;-70
2023/04/29 01:54:52;;;;;;;2.38;2.28;;;;;;;;;;6097287;23;20018;-70
2023/04/29 01:57:18;;;;;;;2.20;2.10;;;;;;;;;;6073603;23;20009;-70
2023/04/29 02:00:07;;;;;;;2.40;2.30;;;;;;;;;;6106931;23;20029;-69
2023/04/29 02:02:41;;;;;;;2.30;2.20;;;;;;;;;;6097608;23;20020;-69
2023/04/29 02:05:15;;;;;;;3.53;2.63;;;;;;;;;;6097511;23;20024;-70
2023/04/29 02:07:48;;;;;;;2.05;1.67;;;;;;;;;;6097607;23;20058;-69
2023/04/29 02:10:15;;;;;;;2.15;2.05;;;;;;;;;;6098035;23;20026;-72
2023/04/29 02:12:43;;;;;;;1.70;1.70;;;;;;;;;;6098141;23;20045;-70
2023/04/29 02:15:29;;;;;;;2.25;2.15;;;;;;;;;;6081960;23;20600;-70
2023/04/29 02:17:55;;;;;;;1.45;1.45;;;;;;;;;;6097953;23;20039;-71
2023/04/29 02:20:21;;;;;;;1.83;1.73;;;;;;;;;;6073016;23;20104;-70
2023/04/29 02:22:48;;;;;;;2.13;1.77;;;;;;;;;;6097221;23;20009;-69
2023/04/29 02:25:14;;;;;;;3.20;2.20;;;;;;;;;;6096765;23;20037;-69
2023/04/29 02:27:39;;;;;;;2.70;2.60;;;;;;;;;;6073530;23;20014;-72
2023/04/29 02:30:07;;;;;;;1.98;1.90;;;;;;;;;;6096960;23;20459;-69
2023/04/29 02:32:34;;;;;;;3.25;3.05;;;;;;;;;;6098023;23;20030;-69
2023/04/29 02:35:00;;;;;;;2.60;2.28;;;;;;;;;;6122609;23;20014;-70
2023/04/29 02:37:29;;;;;;;2.75;2.65;;;;;;;;;;6097650;23;20458;-70
2023/04/29 02:39:56;;;;;;;2.53;2.42;;;;;;;;;;6122861;23;20014;-70
2023/04/29 02:42:22;;;;;;;3.20;3.00;;;;;;;;;;6096801;23;20016;-70
2023/04/29 02:44:48;;;;;;;2.08;1.98;;;;;;;;;;6096702;23;20073;-70
2023/04/29 02:47:14;;;;;;;2.85;2.65;;;;;;;;;;6049232;23;20018;-69
2023/04/29 02:49:40;;;;;;;2.17;2.08;;;;;;;;;;6072699;23;20351;-70
2023/04/29 02:52:06;;;;;;;3.13;2.92;;;;;;;;;;6122506;23;20081;-68
2023/04/29 02:54:35;;;;;;;3.60;2.72;;;;;;;;;;6097080;23;20014;-70
2023/04/29 02:57:01;;;;;;;4.45;2.72;;;;;;;;;;6097404;23;20080;-69
2023/04/29 02:59:30;;;;;;;2.75;2.60;;;;;;;;;;6096891;23;20374;-69
2023/04/29 03:01:56;;;;;;;2.97;2.83;;;;;;;;;;6096975;23;20010;-69
2023/04/29 03:04:23;;;;;;;2.35;2.25;;;;;;;;;;6072964;23;20486;-69
2023/04/29 03:06:50;;;;;;;3.00;2.75;;;;;;;;;;6097291;23;20089;-69
2023/04/29 03:09:16;;;;;;;3.50;3.20;;;;;;;;;;6072888;23;20018;-70
2023/04/29 03:11:45;;;;;;;2.80;2.70;;;;;;;;;;6073749;23;20029;-70
2023/04/29 03:14:11;;;;;;;2.45;2.33;;;;;;;;;;6096611;23;20062;-70
2023/04/29 03:16:37;;;;;;;2.03;1.92;;;;;;;;;;6096979;23;20471;-69
2023/04/29 03:19:05;;;;;;;2.70;2.60;;;;;;;;;;6122304;23;20034;-70
2023/04/29 03:21:31;;;;;;;2.78;2.45;;;;;;;;;;6122672;23;20018;-70
2023/04/29 03:24:00;;;;;;;2.30;2.20;;;;;;;;;;6096310;23;20362;-70
2023/04/29 03:26:32;;;;;;;2.50;2.40;;;;;;;;;;6074148;23;20018;-70
2023/04/29 03:28:58;;;;;;;2.20;2.10;;;;;;;;;;6072569;23;20486;-69
2023/04/29 03:31:26;;;;;;;2.00;1.90;;;;;;;;;;6096464;23;20519;-70
2023/04/29 03:33:52;;;;;;;2.60;2.50;;;;;;;;;;6097479;23;20037;-69
2023/04/29 03:36:20;;;;;;;2.45;2.35;;;;;;;;;;6073128;23;20018;-70
2023/04/29 03:38:55;;;;;;;2.15;2.05;;;;;;;;;;6072563;23;20434;-69
2023/04/29 03:41:23;;;;;;;2.55;2.45;;;;;;;;;;6072472;23;20363;-72
2023/04/29 03:43:50;;;;;;;2.67;2.58;;;;;;;;;;6096569;23;20014;-70
2023/04/29 03:46:16;;;;;;;2.22;2.13;;;;;;;;;;6072495;23;20087;-70
2023/04/29 03:48:42;;;;;;;2.65;2.45;;;;;;;;;;6096364;23;20033;-69
2023/04/29 03:51:08;;;;;;;2.25;2.15;;;;;;;;;;6095928;23;20030;-71
2023/04/29 03:53:36;;;;;;;2.10;1.85;;;;;;;;;;6096661;23;20014;-71
2023/04/29 03:56:04;;;;;;;2.63;2.53;;;;;;;;;;6096505;23;20045;-70
2023/04/29 03:58:30;;;;;;;2.22;2.13;;;;;;;;;;6096577;23;20009;-70
2023/04/29 04:00:56;;;;;;;2.97;2.78;;;;;;;;;;6096886;23;20069;-70
2023/04/29 04:03:29;;;;;;;2.10;2.00;;;;;;;;;;6096682;23;20101;-69
2023/04/29 04:05:57;;;;;;;2.15;2.05;;;;;;;;;;6096562;23;20304;-70
2023/04/29 04:08:23;;;;;;;1.95;1.85;;;;;;;;;;6122019;23;20014;-71
2023/04/29 04:11:05;;;;;;;2.38;2.28;;;;;;;;;;6096389;23;20025;-71
2023/04/29 04:13:36;;;;;;;2.03;1.93;;;;;;;;;;6072438;23;20363;-70
2023/04/29 04:16:02;;;;;;;2.33;2.22;;;;;;;;;;6096704;23;20250;-70
2023/04/29 04:18:30;;;;;;;2.33;2.22;;;;;;;;;;6097431;23;20014;-70
2023/04/29 04:20:56;;;;;;;2.25;2.15;;;;;;;;;;6097924;23;20024;-71
2023/04/29 04:23:24;;;;;;;2.38;2.28;;;;;;;;;;6099394;23;20060;-71
2023/04/29 04:25:52;;;;;;;2.33;2.22;;;;;;;;;;6097946;23;20069;-71
2023/04/29 04:28:41;;;;;;;2.20;1.83;;;;;;;;;;6067125;23;20096;-71
2023/04/29 04:31:16;;;;;;;2.25;2.08;;;;;;;;;;6096737;23;20021;-70
2023/04/29 04:33:43;;;;;;;2.55;2.45;;;;;;;;;;6072055;23;20362;-69
2023/04/29 04:36:09;;;;;;;2.63;2.53;;;;;;;;;;6097685;23;20018;-70
2023/04/29 04:38:35;;;;;;;2.58;2.38;;;;;;;;;;6098627;23;20021;-70
2023/04/29 04:41:06;;;;;;;2.53;2.33;;;;;;;;;;6074253;23;20024;-70
2023/04/29 04:43:35;;;;;;;2.75;2.55;;;;;;;;;;6098165;23;20394;-71
2023/04/29 04:46:11;;;;;;;3.22;3.03;;;;;;;;;;6124182;23;20072;-70
2023/04/29 04:48:40;;;;;;;2.05;1.98;;;;;;;;;;6097988;23;20468;-72
2023/04/29 04:51:13;;;;;;;2.40;2.30;;;;;;;;;;6098978;23;20037;-71
2023/04/29 04:53:42;;;;;;;2.70;2.60;;;;;;;;;;6074330;23;20006;-72
2023/04/29 04:56:16;;;;;;;3.08;2.50;;;;;;;;;;6075725;23;20367;-71
2023/04/29 04:58:43;;;;;;;2.47;2.38;;;;;;;;;;6097915;23;20010;-71
2023/04/29 05:01:09;;;;;;;2.60;2.33;;;;;;;;;;6097954;23;20017;-72
2023/04/29 05:03:35;;;;;;;2.50;2.38;;;;;;;;;;6099441;23;20469;-71
2023/04/29 05:06:01;;;;;;;2.22;2.13;;;;;;;;;;6073490;23;20021;-71
2023/04/29 05:08:29;;;;;;;2.58;2.40;;;;;;;;;;6098449;23;20092;-72
2023/04/29 05:10:57;;;;;;;2.75;2.55;;;;;;;;;;6074601;23;20021;-71
2023/04/29 05:13:26;;;;;;;2.60;2.40;;;;;;;;;;6097672;23;20013;-71
2023/04/29 05:15:52;;;;;;;1.98;1.85;;;;;;;;;;6097854;23;20022;-70
2023/04/29 05:18:23;;;;;;;2.33;2.22;;;;;;;;;;6098038;23;20014;-70
2023/04/29 05:20:50;;;;;;;1.90;1.85;;;;;;;;;;6097790;23;20014;-69
2023/04/29 05:23:16;;;;;;;2.53;2.42;;;;;;;;;;6097705;23;20141;-70
2023/04/29 05:25:45;;;;;;;2.75;2.58;;;;;;;;;;6076361;23;20455;-70
2023/04/29 05:28:10;;;;;;;2.85;2.60;;;;;;;;;;6099607;23;20010;-70
2023/04/29 05:30:39;;;;;;;4.78;2.70;;;;;;;;;;6099310;23;20025;-70
2023/04/29 05:33:06;;;;;;;2.97;2.78;;;;;;;;;;6098702;23;20020;-70
2023/04/29 05:35:32;;;;;;;2.95;2.60;;;;;;;;;;6073672;23;20423;-70
2023/04/29 05:37:59;;;;;;;4.30;2.55;;;;;;;;;;6099484;23;20017;-70
2023/04/29 05:40:48;;;;;;;3.50;3.17;;;;;;;;;;6125754;23;20467;-70
2023/04/29 05:43:17;;;;;;;5.00;3.10;;;;;;;;;;6120105;23;20009;-72
2023/04/29 05:45:45;;;;;;;2.70;2.60;;;;;;;;;;6096301;23;20018;-73
2023/04/29 05:48:11;;;;;;;4.15;2.90;;;;;;;;;;6095925;23;20515;-73
2023/04/29 05:50:39;;;;;;;2.88;2.67;;;;;;;;;;6123043;23;20017;-72
2023/04/29 05:53:05;;;;;;;2.70;2.50;;;;;;;;;;6073220;23;20092;-71
2023/04/29 05:55:31;;;;;;;3.80;2.88;;;;;;;;;;6096838;23;20042;-72
2023/04/29 05:57:57;;;;;;;3.53;2.97;;;;;;;;;;6123117;23;20005;-72
2023/04/29 06:00:23;;;;;;;2.85;2.65;;;;;;;;;;6096360;23;20018;-72
2023/04/29 06:02:55;;;;;;;3.20;2.90;;;;;;;;;;6074323;23;20021;-71
2023/04/29 06:05:21;;;;;;;3.50;3.05;;;;;;;;;;6096272;23;20452;-72
2023/04/29 06:08:06;;;;;;;3.40;3.20;;;;;;;;;;6123270;23;20017;-73
2023/04/29 06:10:53;;;;;;;3.13;2.78;;;;;;;;;;6077581;23;20032;-73
2023/04/29 06:13:19;;;;;;;3.60;3.30;;;;;;;;;;6096136;23;20018;-71
2023/04/29 06:15:45;;;;;;;2.90;2.70;;;;;;;;;;6049761;23;20025;-73
2023/04/29 06:18:13;;;;;;;3.20;2.97;;;;;;;;;;6074307;23;20040;-73
2023/04/29 06:20:40;;;;;;;3.33;3.05;;;;;;;;;;6097890;23;20075;-74
2023/04/29 06:23:06;;;;;;;3.80;2.90;;;;;;;;;;6097834;23;20034;-76
2023/04/29 06:25:33;;;;;;;2.65;2.50;;;;;;;;;;6096459;23;20017;-75
2023/04/29 06:28:03;;;;;;;2.90;2.70;;;;;;;;;;6122695;23;20010;-75
2023/04/29 06:30:30;;;;;;;3.10;2.80;;;;;;;;;;6096394;23;20018;-75
2023/04/29 06:32:56;;;;;;;2.83;2.63;;;;;;;;;;6096709;23;20021;-75
2023/04/29 06:35:25;;;;;;;3.50;3.20;;;;;;;;;;6122326;23;20013;-75
2023/04/29 06:38:09;;;;;;;3.80;2.72;;;;;;;;;;6122970;23;20065;-74
2023/04/29 06:40:54;;;;;;;7.35;4.20;;;;;;;;;;6096961;23;20014;-74
2023/04/29 06:43:46;;;;;;;4.70;4.00;;;;;;;;;;6086095;23;20455;-75
2023/04/29 06:46:35;;;;;;;3.85;3.55;;;;;;;;;;6095601;23;20018;-74
2023/04/29 06:49:06;;;;;;;5.03;3.22;;;;;;;;;;6093960;23;20021;-74
2023/04/29 06:51:32;;;;;;;3.40;3.15;;;;;;;;;;6094425;23;20029;-74
2023/04/29 06:53:58;;;;;;;3.70;3.50;;;;;;;;;;6094988;23;20014;-75
2023/04/29 06:56:25;;;;;;;3.60;3.30;;;;;;;;;;6120081;23;20021;-74
2023/04/29 06:58:51;;;;;;;4.22;3.10;;;;;;;;;;6121630;23;20017;-74
2023/04/29 07:01:17;;;;;;;4.53;2.95;;;;;;;;;;6094536;23;20010;-75
2023/04/29 07:03:43;;;;;;;3.47;3.25;;;;;;;;;;6094436;23;20410;-73
2023/04/29 07:06:09;;;;;;;3.58;3.38;;;;;;;;;;6122154;23;20092;-73
2023/04/29 07:08:35;;;;;;;7.90;3.30;;;;;;;;;;6073943;23;20384;-74
2023/04/29 07:11:02;;;;;;;4.30;2.92;;;;;;;;;;6121806;23;20057;-74
2023/04/29 07:13:28;;;;;;;3.00;2.80;;;;;;;;;;6095317;23;20061;-73
2023/04/29 07:15:54;;;;;;;3.85;2.40;;;;;;;;;;6122111;23;20458;-74
2023/04/29 07:18:20;;;;;;;3.80;2.70;;;;;;;;;;6095874;23;20005;-75
2023/04/29 07:20:48;;;;;;;2.05;1.95;;;;;;;;;;6096073;23;20025;-75
2023/04/29 07:23:14;;;;;;;4.00;2.47;;;;;;;;;;6121893;23;20350;-74
2023/04/29 07:25:40;;;;;;;2.10;2.10;;;;;;;;;;6096343;23;20017;-74
2023/04/29 07:28:09;;;;;;;2.40;2.30;;;;;;;;;;6121629;23;20092;-74
2023/04/29 07:30:36;;;;;;;3.92;2.65;;;;;;;;;;6095521;23;20053;-75
2023/04/29 07:33:03;;;;;;;2.55;2.40;;;;;;;;;;6096235;23;20014;-75
2023/04/29 07:35:30;;;;;;;3.00;2.80;;;;;;;;;;6072130;23;20013;-74
2023/04/29 07:37:56;;;;;;;3.20;2.75;;;;;;;;;;6122266;23;20105;-74
2023/04/29 07:40:24;;;;;;;3.17;2.97;;;;;;;;;;6095508;23;20077;-75
2023/04/29 07:42:52;;;;;;;3.50;2.63;;;;;;;;;;6094835;23;20021;-74
2023/04/29 07:45:22;;;;;;;10.30;3.40;;;;;;;;;;6096095;23;20093;-75
2023/04/29 07:47:48;;;;;;;3.58;3.38;;;;;;;;;;6072411;23;20093;-75
2023/04/29 07:50:15;;;;;;;6.72;4.00;;;;;;;;;;6121399;23;20430;-75
2023/04/29 07:52:41;;;;;;;3.45;3.15;;;;;;;;;;6122028;23;20010;-75
2023/04/29 07:55:07;;;;;;;2.67;2.58;;;;;;;;;;6096140;23;20018;-76
2023/04/29 07:57:34;;;;;;;3.50;3.17;;;;;;;;;;6095797;23;20439;-76
2023/04/29 08:00:02;;;;;;;3.10;2.90;;;;;;;;;;6121831;23;20014;-76
2023/04/29 08:02:29;;;;;;;3.72;3.40;;;;;;;;;;6071926;23;20407;-76
2023/04/29 08:04:56;;;;;;;4.07;3.40;;;;;;;;;;6095613;23;20049;-76
2023/04/29 08:07:22;;;;;;;3.58;3.30;;;;;;;;;;6096020;23;20209;-77
2023/04/29 08:09:49;;;;;;;3.13;2.92;;;;;;;;;;6096201;23;20046;-76
2023/04/29 08:12:16;;;;;;;3.30;3.00;;;;;;;;;;6097481;23;20065;-76
2023/04/29 08:14:42;;;;;;;3.55;3.20;;;;;;;;;;6122904;23;20014;-76
2023/04/29 08:17:09;;;;;;;3.92;3.33;;;;;;;;;;6098069;23;20048;-76
2023/04/29 08:19:35;;;;;;;5.55;3.33;;;;;;;;;;6097901;23;20022;-76
2023/04/29 08:22:03;;;;;;;3.95;3.40;;;;;;;;;;6074688;23;20013;-77
2023/04/29 08:24:29;;;;;;;3.30;3.00;;;;;;;;;;6098196;23;20005;-75
2023/04/29 08:26:55;;;;;;;3.88;3.55;;;;;;;;;;6124177;23;20018;-76
2023/04/29 08:29:21;;;;;;;3.80;3.30;;;;;;;;;;6122866;23;20018;-77
2023/04/29 08:31:47;;;;;;;5.38;3.35;;;;;;;;;;6098091;23;20017;-77
2023/04/29 08:34:13;;;;;;;9.27;4.05;;;;;;;;;;6100893;23;20018;-77
2023/04/29 08:36:39;;;;;;;3.70;3.40;;;;;;;;;;6137442;23;20495;-77
2023/04/29 08:39:05;;;;;;;2.80;2.60;;;;;;;;;;6132694;23;20021;-78
2023/04/29 08:41:32;;;;;;;3.33;3.00;;;;;;;;;;6133670;23;20014;-78
2023/04/29 08:43:58;;;;;;;3.03;2.80;;;;;;;;;;6076506;23;20013;-77
2023/04/29 08:46:25;;;;;;;3.15;2.95;;;;;;;;;;6096379;23;20017;-77
2023/04/29 08:48:51;;;;;;;3.20;2.90;;;;;;;;;;6123482;23;20022;-77
2023/04/29 08:51:17;;;;;;;4.13;3.83;;;;;;;;;;6122905;23;20026;-77
2023/04/29 08:53:43;;;;;;;3.40;3.20;;;;;;;;;;6122861;23;20093;-75
2023/04/29 08:56:12;;;;;;;2.60;2.50;;;;;;;;;;6097312;23;20340;-77
2023/04/29 08:58:38;;;;;;;2.40;2.20;;;;;;;;;;6097395;23;20065;-77
2023/04/29 09:01:06;;;;;;;4.65;2.72;;;;;;;;;;6097055;23;20340;-76
2023/04/29 09:03:39;;;;;;;4.43;2.92;;;;;;;;;;6123193;23;20014;-77
2023/04/29 09:06:05;;;;;;;3.42;3.08;;;;;;;;;;6097684;23;20096;-78
2023/04/29 09:08:31;;;;;;;4.13;3.05;;;;;;;;;;6073422;23;20359;-78
2023/04/29 09:10:57;;;;;;;3.95;2.95;;;;;;;;;;6098448;23;20029;-79
2023/04/29 09:13:30;;;;;;;3.15;2.92;;;;;;;;;;6125957;23;20013;-78
2023/04/29 09:15:56;;;;;;;4.85;3.47;;;;;;;;;;6073246;23;20016;-79
2023/04/29 09:18:41;;;;;;;12.75;3.85;;;;;;;;;;6079195;23;20037;-80
2023/04/29 09:21:22;;;;;;;2.83;2.63;;;;;;;;;;6124711;23;20013;-72
2023/04/29 09:23:49;;;;;;;3.55;3.22;;;;;;;;;;6125323;23;20396;-72
2023/04/29 09:26:15;;;;;;;4.20;3.80;;;;;;;;;;6075370;23;20010;-72
2023/04/29 09:28:43;;;;;;;3.63;3.35;;;;;;;;;;6075134;23;20014;-73
2023/04/29 09:31:10;;;;;;;8.05;3.80;;;;;;;;;;6097330;23;20076;-73
2023/04/29 09:33:53;;;;;;;4.28;3.50;;;;;;;;;;6098981;23;20097;-73
2023/04/29 09:36:37;;;;;;;5.97;3.15;;;;;;;;;;6122976;23;20149;-72
2023/04/29 09:39:10;;;;;;;3.65;3.35;;;;;;;;;;6096997;23;20024;-72
2023/04/29 09:41:37;;;;;;;6.78;2.50;;;;;;;;;;6094938;23;20018;-71
2023/04/29 09:44:06;;;;;;;3.28;3.05;;;;;;;;;;6120536;23;20013;-72
2023/04/29 09:46:32;;;;;;;3.35;3.10;;;;;;;;;;6122003;23;20017;-72
2023/04/29 09:48:58;;;;;;;3.00;2.83;;;;;;;;;;6096885;23;20022;-72
2023/04/29 09:51:24;;;;;;;4.20;3.08;;;;;;;;;;6122877;23;20192;-72
2023/04/29 09:53:50;;;;;;;2.40;2.30;;;;;;;;;;6122717;23;20049;-72
2023/04/29 09:56:16;;;;;;;2.50;2.40;;;;;;;;;;6096384;23;20014;-72
2023/04/29 09:58:42;;;;;;;5.35;2.88;;;;;;;;;;6122046;23;20010;-72
2023/04/29 10:01:09;;;;;;;2.70;2.50;;;;;;;;;;6122499;23;20112;-72
2023/04/29 10:03:36;;;;;;;3.92;2.58;;;;;;;;;;6096603;23;20014;-72
2023/04/29 10:06:03;;;;;;;2.55;2.20;;;;;;;;;;6122858;23;20013;-72
2023/04/29 10:08:29;;;;;;;2.30;2.10;;;;;;;;;;6122241;23;20096;-72
2023/04/29 10:10:56;;;;;;;6.20;2.00;;;;;;;;;;6122665;23;20579;-73
2023/04/29 10:13:24;;;;;;;2.78;1.80;;;;;;;;;;6096332;23;20017;-73
2023/04/29 10:15:51;;;;;;;3.20;2.30;;;;;;;;;;6096343;23;20018;-72
2023/04/29 10:18:20;;;;;;;6.10;2.35;;;;;;;;;;6097081;23;20014;-73
2023/04/29 10:20:47;;;;;;;2.77;2.57;;;;;;;;;;6122631;23;20556;-74
2023/04/29 10:23:14;;;;;;;2.42;2.25;;;;;;;;;;6124506;23;20331;-72
2023/04/29 10:25:43;;;;;;;6.20;3.55;;;;;;;;;;6125164;23;20014;-73
2023/04/29 10:28:12;;;;;;;2.58;2.38;;;;;;;;;;6099500;23;20069;-72
2023/04/29 10:30:38;;;;;;;2.17;1.98;;;;;;;;;;6124872;23;20139;-73
2023/04/29 10:33:04;;;;;;;2.70;2.50;;;;;;;;;;6100052;23;20014;-73
2023/04/29 10:35:31;;;;;;;5.55;2.58;;;;;;;;;;6098112;23;20014;-72
2023/04/29 10:37:57;;;;;;;2.38;2.25;;;;;;;;;;6124860;23;20017;-72
2023/04/29 10:40:29;;;;;;;3.72;2.10;;;;;;;;;;6096191;23;20490;-72
2023/04/29 10:42:56;;;;;;;2.30;2.10;;;;;;;;;;6121499;23;20010;-72
2023/04/29 10:45:33;;;;;;;2.83;2.63;;;;;;;;;;6096032;23;20424;-73
2023/04/29 10:48:05;;;;;;;2.65;2.45;;;;;;;;;;6096206;23;20428;-72
2023/04/29 10:50:32;;;;;;;6.75;2.63;;;;;;;;;;6121813;23;20025;-73
2023/04/29 10:53:02;;;;;;;4.30;3.38;;;;;;;;;;6096727;23;20016;-73
2023/04/29 10:55:28;;;;;;;3.03;2.67;;;;;;;;;;6121899;23;20017;-74
2023/04/29 10:57:57;;;;;;;6.72;3.03;;;;;;;;;;6072550;23;20079;-72
2023/04/29 11:00:27;;;;;;;2.92;2.72;;;;;;;;;;6095409;23;20017;-72
2023/04/29 11:02:53;;;;;;;3.15;2.50;;;;;;;;;;6121832;23;20033;-72
2023/04/29 11:05:29;;;;;;;1.98;1.75;;;;;;;;;;6094952;23;20013;-72
2023/04/29 11:08:15;;;;;;;2.53;1.67;;;;;;;;;;6121976;23;20009;-73
2023/04/29 11:10:41;;;;;;;2.13;2.03;;;;;;;;;;6098205;23;20025;-71
2023/04/29 11:13:21;;;;;;;3.25;2.28;;;;;;;;;;6130879;23;20009;-72
2023/04/29 11:15:47;;;;;;;3.85;2.33;;;;;;;;;;6127406;23;20041;-73
2023/04/29 11:18:13;;;;;;;2.20;2.00;;;;;;;;;;6100537;23;20021;-73
2023/04/29 11:20:58;;;;;;;2.80;2.60;;;;;;;;;;6107771;23;20073;-72
2023/04/29 11:23:24;;;;;;;2.35;2.15;;;;;;;;;;6122348;23;20021;-72
2023/04/29 11:25:50;;;;;;;2.28;2.17;;;;;;;;;;6122152;23;20014;-72
2023/04/29 11:28:16;;;;;;;2.42;2.30;;;;;;;;;;6121962;23;20017;-73
2023/04/29 11:30:42;;;;;;;4.43;2.38;;;;;;;;;;6095750;23;20078;-72
2023/04/29 11:33:08;;;;;;;2.53;2.38;;;;;;;;;;6072081;23;20065;-73
2023/04/29 11:35:33;;;;;;;1.92;1.83;;;;;;;;;;6121275;23;20022;-75
2023/04/29 11:37:59;;;;;;;2.80;2.58;;;;;;;;;;6120996;23;20010;-72
2023/04/29 11:40:25;;;;;;;6.10;2.35;;;;;;;;;;6124276;23;20014;-74
2023/04/29 11:42:51;;;;;;;10.57;7.43;;;;;;;;;;6125963;23;20065;-72
2023/04/29 11:45:18;;;;;;;2.72;2.53;;;;;;;;;;6124862;23;20424;-73
2023/04/29 11:47:44;;;;;;;11.93;5.32;;;;;;;;;;6123421;23;20010;-72
2023/04/29 11:50:11;;;;;;;3.42;2.50;;;;;;;;;;6124252;23;20021;-72
2023/04/29 11:52:37;;;;;;;3.90;3.20;;;;;;;;;;6120481;23;20347;-73
2023/04/29 11:55:03;;;;;;;3.35;2.40;;;;;;;;;;6094775;23;20041;-74
2023/04/29 11:57:30;;;;;;;9.95;4.38;;;;;;;;;;6119557;23;20017;-72
2023/04/29 11:59:57;;;;;;;10.23;4.18;;;;;;;;;;6120895;23;20017;-73
2023/04/29 12:02:30;;;;;;;4.60;2.60;;;;;;;;;;6071588;23;20018;-72
2023/04/29 12:04:56;;;;;;;2.42;2.22;;;;;;;;;;6122162;23;20010;-73
2023/04/29 12:07:23;;;;;;;3.17;2.67;;;;;;;;;;6122033;23;20091;-72
2023/04/29 12:09:49;;;;;;;2.72;2.53;;;;;;;;;;6072338;23;20026;-72
2023/04/29 12:12:15;;;;;;;3.28;2.65;;;;;;;;;;6096420;23;20089;-72
2023/04/29 12:14:41;;;;;;;2.65;2.45;;;;;;;;;;6072658;23;20052;-72
2023/04/29 12:17:10;;;;;;;3.10;2.80;;;;;;;;;;6122413;23;20010;-72
2023/04/29 12:19:37;;;;;;;5.07;2.30;;;;;;;;;;6121656;23;20040;-72
2023/04/29 12:22:03;;;;;;;5.18;2.38;;;;;;;;;;6123232;23;20017;-72
2023/04/29 12:24:36;;;;;;;2.63;2.45;;;;;;;;;;6122578;23;20006;-75
2023/04/29 12:27:03;;;;;;;3.75;2.40;;;;;;;;;;6074222;23;20022;-73
2023/04/29 12:29:30;;;;;;;2.33;2.22;;;;;;;;;;6126550;23;20046;-73
2023/04/29 12:31:56;;;;;;;4.03;2.55;;;;;;;;;;6127558;23;20018;-72
2023/04/29 12:34:29;;;;;;;10.57;6.95;;;;;;;;;;6105750;23;20070;-72
2023/04/29 12:36:56;;;;;;;5.65;5.05;;;;;;;;;;6105399;23;20037;-73
2023/04/29 12:39:22;;;;;;;4.97;3.28;;;;;;;;;;6131292;23;20497;-72
2023/04/29 12:41:48;;;;;;;3.25;2.30;;;;;;;;;;6123720;23;20312;-72
2023/04/29 12:44:14;;;;;;;3.63;2.60;;;;;;;;;;6097336;23;20013;-73
2023/04/29 12:46:40;;;;;;;2.63;2.42;;;;;;;;;;6096805;23;20014;-74
2023/04/29 12:49:06;;;;;;;3.00;2.78;;;;;;;;;;6096825;23;20080;-73
2023/04/29 12:51:32;;;;;;;3.15;2.60;;;;;;;;;;6122692;23;20026;-72
2023/04/29 12:53:59;;;;;;;7.22;3.58;;;;;;;;;;6072734;23;20032;-73
2023/04/29 12:56:25;;;;;;;2.85;2.65;;;;;;;;;;6097305;23;20013;-72
2023/04/29 12:58:51;;;;;;;2.80;2.60;;;;;;;;;;6125577;23;20013;-73
2023/04/29 13:01:17;;;;;;;8.07;2.65;;;;;;;;;;6123920;23;20064;-72
2023/04/29 13:03:43;;;;;;;12.00;4.60;;;;;;;;;;6123876;23;20029;-72
2023/04/29 13:06:10;;;;;;;11.15;2.80;;;;;;;;;;6098092;23;20088;-73
2023/04/29 13:08:36;;;;;;;3.67;2.78;;;;;;;;;;6123471;23;20013;-72
2023/04/29 13:11:02;;;;;;;3.70;3.40;;;;;;;;;;6124022;23;20025;-72
2023/04/29 13:13:30;;;;;;;3.58;2.60;;;;;;;;;;6097911;23;20455;-72
2023/04/29 13:15:57;;;;;;;6.00;2.83;;;;;;;;;;6123755;23;20024;-73
2023/04/29 13:18:22;;;;;;;3.58;3.10;;;;;;;;;;6098875;23;20018;-72
2023/04/29 13:20:49;;;;;;;5.20;2.95;;;;;;;;;;6124618;23;20025;-72
2023/04/29 13:23:15;;;;;;;3.25;2.55;;;;;;;;;;6099601;23;20479;-73
2023/04/29 13:25:41;;;;;;;4.32;2.65;;;;;;;;;;6124559;23;20081;-72
2023/04/29 13:28:07;;;;;;;3.40;3.20;;;;;;;;;;6123817;23;20014;-73
2023/04/29 13:30:33;;;;;;;2.95;2.65;;;;;;;;;;6097511;23;20032;-72
2023/04/29 13:33:00;;;;;;;3.25;2.95;;;;;;;;;;6098091;23;20006;-72
2023/04/29 13:35:26;;;;;;;4.18;2.90;;;;;;;;;;6097571;23;20100;-73
2023/04/29 13:37:52;;;;;;;6.38;2.60;;;;;;;;;;6097501;23;20045;-72
2023/04/29 13:40:18;;;;;;;2.30;2.20;;;;;;;;;;6097826;23;20022;-73
2023/04/29 13:42:44;;;;;;;5.95;2.30;;;;;;;;;;6123351;23;20013;-72
2023/04/29 13:45:10;;;;;;;2.80;2.58;;;;;;;;;;6123604;23;20068;-73
2023/04/29 13:47:36;;;;;;;5.30;2.53;;;;;;;;;;6123133;23;20417;-72
2023/04/29 13:50:02;;;;;;;6.18;4.00;;;;;;;;;;6097232;23;20036;-72
2023/04/29 13:52:30;;;;;;;5.05;2.60;;;;;;;;;;6097955;23;20089;-73
2023/04/29 13:54:56;;;;;;;2.67;2.50;;;;;;;;;;6098135;23;20021;-72
2023/04/29 13:57:22;;;;;;;5.07;2.90;;;;;;;;;;6049629;23;20451;-72
2023/04/29 13:59:51;;;;;;;3.38;2.50;;;;;;;;;;6123761;23;20018;-72
2023/04/29 14:02:17;;;;;;;2.55;2.30;;;;;;;;;;6123498;23;20354;-73
2023/04/29 14:04:43;;;;;;;2.42;2.22;;;;;;;;;;6097328;23;20022;-72
2023/04/29 14:07:09;;;;;;;8.48;2.42;;;;;;;;;;6097378;23;20014;-72
2023/04/29 14:09:35;;;;;;;4.13;1.88;;;;;;;;;;6122637;23;20463;-72
2023/04/29 14:12:01;;;;;;;3.15;2.40;;;;;;;;;;6097344;23;20013;-72
2023/04/29 14:14:27;;;;;;;3.00;2.10;;;;;;;;;;6123384;23;20010;-73
2023/04/29 14:16:53;;;;;;;3.35;2.05;;;;;;;;;;6097279;23;20101;-72
2023/04/29 14:19:19;;;;;;;4.68;2.70;;;;;;;;;;6097149;23;20364;-73
2023/04/29 14:21:45;;;;;;;2.92;2.40;;;;;;;;;;6122716;23;20024;-72
2023/04/29 14:24:11;;;;;;;5.72;2.75;;;;;;;;;;6123125;23;20016;-72
2023/04/29 14:26:38;;;;;;;4.82;2.45;;;;;;;;;;6072921;23;20024;-72
2023/04/29 14:29:04;;;;;;;9.75;3.80;;;;;;;;;;6097353;23;20018;-72
2023/04/29 14:31:30;;;;;;;2.88;2.67;;;;;;;;;;6096717;23;20026;-72
2023/04/29 14:33:56;;;;;;;9.45;3.42;;;;;;;;;;6122857;23;20017;-72
2023/04/29 14:36:22;;;;;;;7.20;3.28;;;;;;;;;;6098287;23;20101;-72
2023/04/29 14:38:48;;;;;;;4.22;2.67;;;;;;;;;;6124096;23;20060;-73
2023/04/29 14:41:14;;;;;;;2.80;2.60;;;;;;;;;;6123542;23;20118;-73
2023/04/29 14:43:41;;;;;;;4.25;3.10;;;;;;;;;;6122523;23;20014;-73
2023/04/29 14:46:07;;;;;;;4.78;4.30;;;;;;;;;;6072963;23;20018;-73
2023/04/29 14:48:34;;;;;;;2.78;2.58;;;;;;;;;;6096617;23;20036;-72
2023/04/29 14:51:00;;;;;;;3.63;2.72;;;;;;;;;;6096701;23;20112;-72